createdAt,value
2022-09-07T00:00:55.809Z,72.96
2022-09-07T00:01:55.787Z,73.96
2022-09-07T00:02:55.843Z,73.66
2022-09-07T00:03:55.883Z,72.56
2022-09-07T00:04:55.769Z,73.46
2022-09-07T00:05:55.721Z,73.50
2022-09-07T00:06:55.749Z,73.70
2022-09-07T00:07:55.684Z,73.76
2022-09-07T00:08:55.716Z,73.56
2022-09-07T00:09:55.686Z,73.60
2022-09-07T00:10:55.634Z,73.80
2022-09-07T00:11:55.609Z,73.50
2022-09-07T00:12:55.589Z,73.70
2022-09-07T00:13:55.584Z,73.80
2022-09-07T00:14:55.598Z,73.76
2022-09-07T00:15:55.600Z,73.50
2022-09-07T00:16:55.587Z,73.90
2022-09-07T00:17:55.517Z,73.66
2022-09-07T00:18:55.480Z,73.50
2022-09-07T00:19:56.561Z,73.46
2022-09-07T00:20:55.554Z,73.50
2022-09-07T00:21:55.473Z,73.39
2022-09-07T00:22:56.430Z,73.50
2022-09-07T00:23:55.415Z,73.50
2022-09-07T00:24:55.419Z,73.19
2022-09-07T00:25:55.390Z,73.80
2022-09-07T00:26:55.366Z,73.70
2022-09-07T00:27:55.341Z,74.10
2022-09-07T00:28:55.337Z,74.00
2022-09-07T00:29:55.346Z,73.80
2022-09-07T00:30:55.332Z,73.80
2022-09-07T00:31:55.316Z,73.90
2022-09-07T00:32:55.262Z,74.10
2022-09-07T00:33:55.236Z,73.83
2022-09-07T00:34:55.257Z,73.80
2022-09-07T00:35:55.203Z,73.83
2022-09-07T00:36:55.243Z,74.03
2022-09-07T00:37:55.222Z,74.13
2022-09-07T00:38:55.169Z,73.93
2022-09-07T00:39:55.213Z,74.03
2022-09-07T00:40:55.181Z,74.23
2022-09-07T00:41:55.172Z,73.63
2022-09-07T00:42:55.087Z,74.00
2022-09-07T00:43:55.079Z,73.63
2022-09-07T00:44:55.106Z,74.03
2022-09-07T00:45:55.048Z,73.93
2022-09-07T00:46:55.102Z,73.70
2022-09-07T00:47:55.020Z,73.50
2022-09-07T00:48:54.980Z,73.50
2022-09-07T00:49:54.996Z,73.60
2022-09-07T00:50:54.942Z,73.53
2022-09-07T00:51:55.927Z,73.50
2022-09-07T00:52:54.946Z,72.60
2022-09-07T00:53:54.899Z,72.69
2022-09-07T00:54:54.919Z,72.69
2022-09-07T00:55:54.860Z,73.19
2022-09-07T00:56:54.865Z,73.10
2022-09-07T00:57:54.825Z,73.19
2022-09-07T00:58:54.800Z,73.30
2022-09-07T00:59:54.836Z,73.39
2022-09-07T01:00:54.774Z,73.19
2022-09-07T01:01:54.814Z,73.19
2022-09-07T01:02:54.856Z,73.19
2022-09-07T01:03:54.759Z,73.10
2022-09-07T01:04:54.729Z,72.96
2022-09-07T01:05:54.678Z,73.19
2022-09-07T01:06:54.666Z,72.50
2022-09-07T01:07:54.649Z,72.09
2022-09-07T01:08:54.644Z,71.89
2022-09-07T01:09:54.608Z,72.39
2022-09-07T01:10:54.629Z,71.80
2022-09-07T01:11:54.608Z,72.09
2022-09-07T01:12:54.572Z,71.59
2022-09-07T01:13:54.565Z,72.50
2022-09-07T01:14:54.555Z,71.69
2022-09-07T01:15:54.608Z,71.59
2022-09-07T01:16:54.537Z,71.80
2022-09-07T01:17:54.481Z,71.89
2022-09-07T01:18:54.470Z,71.69
2022-09-07T01:19:54.448Z,72.19
2022-09-07T01:20:54.497Z,71.89
2022-09-07T01:21:54.434Z,72.09
2022-09-07T01:22:54.396Z,72.00
2022-09-07T01:23:54.387Z,72.00
2022-09-07T01:24:54.377Z,71.06
2022-09-07T01:25:54.411Z,71.80
2022-09-07T01:26:54.383Z,71.19
2022-09-07T01:27:54.346Z,71.19
2022-09-07T01:28:54.302Z,71.30
2022-09-07T01:29:54.304Z,71.26
2022-09-07T01:30:54.313Z,71.69
2022-09-07T01:31:54.257Z,71.39
2022-09-07T01:32:54.253Z,71.66
2022-09-07T01:33:54.218Z,71.46
2022-09-07T01:34:54.222Z,71.06
2022-09-07T01:35:54.182Z,70.96
2022-09-07T01:36:55.058Z,70.79
2022-09-07T01:37:57.046Z,70.46
2022-09-07T01:38:55.138Z,69.89
2022-09-07T01:39:54.249Z,69.66
2022-09-07T01:40:54.109Z,69.99
2022-09-07T01:41:54.070Z,69.89
2022-09-07T01:42:54.070Z,69.89
2022-09-07T01:43:54.044Z,69.39
2022-09-07T01:44:54.058Z,69.89
2022-09-07T01:45:54.022Z,70.09
2022-09-07T01:46:54.016Z,70.59
2022-09-07T01:47:54.047Z,70.19
2022-09-07T01:48:53.948Z,70.29
2022-09-07T01:49:53.963Z,70.19
2022-09-07T01:50:53.916Z,70.39
2022-09-07T01:51:54.900Z,70.19
2022-09-07T01:52:53.880Z,70.29
2022-09-07T01:53:53.889Z,70.39
2022-09-07T01:54:53.889Z,70.16
2022-09-07T01:55:53.841Z,70.26
2022-09-07T01:56:53.899Z,70.66
2022-09-07T01:57:53.800Z,70.36
2022-09-07T01:58:53.865Z,70.69
2022-09-07T01:59:53.769Z,71.19
2022-09-07T02:00:53.787Z,71.06
2022-09-07T02:01:53.878Z,71.46
2022-09-07T02:02:53.813Z,71.36
2022-09-07T02:03:53.700Z,71.80
2022-09-07T02:04:53.716Z,71.80
2022-09-07T02:05:53.659Z,71.30
2022-09-07T02:06:53.700Z,71.80
2022-09-07T02:07:53.648Z,71.80
2022-09-07T02:08:53.642Z,71.89
2022-09-07T02:09:53.585Z,71.69
2022-09-07T02:10:53.607Z,71.69
2022-09-07T02:11:53.552Z,71.66
2022-09-07T02:12:53.540Z,71.80
2022-09-07T02:13:53.519Z,72.00
2022-09-07T02:14:53.515Z,71.80
2022-09-07T02:15:53.567Z,71.89
2022-09-07T02:16:53.525Z,72.09
2022-09-07T02:17:53.453Z,71.69
2022-09-07T02:18:53.442Z,71.69
2022-09-07T02:19:53.410Z,71.30
2022-09-07T02:20:53.515Z,71.30
2022-09-07T02:21:53.378Z,70.86
2022-09-07T02:22:53.375Z,70.79
2022-09-07T02:23:53.399Z,70.59
2022-09-07T02:24:53.403Z,70.59
2022-09-07T02:25:53.350Z,70.69
2022-09-07T02:26:53.388Z,70.59
2022-09-07T02:27:53.287Z,70.39
2022-09-07T02:28:53.257Z,70.50
2022-09-07T02:29:53.232Z,71.09
2022-09-07T02:30:53.324Z,70.50
2022-09-07T02:31:53.287Z,70.59
2022-09-07T02:32:53.184Z,71.39
2022-09-07T02:33:53.167Z,71.30
2022-09-07T02:34:53.151Z,70.89
2022-09-07T02:35:53.167Z,70.50
2022-09-07T02:36:53.155Z,71.69
2022-09-07T02:37:53.107Z,72.80
2022-09-07T02:38:53.079Z,73.60
2022-09-07T02:39:53.123Z,74.20
2022-09-07T02:40:53.088Z,74.63
2022-09-07T02:41:53.042Z,73.93
2022-09-07T02:42:53.057Z,73.63
2022-09-07T02:43:53.000Z,74.03
2022-09-07T02:44:52.978Z,73.73
2022-09-07T02:45:53.050Z,72.27
2022-09-07T02:46:53.021Z,71.83
2022-09-07T02:47:52.929Z,71.66
2022-09-07T02:48:52.894Z,71.63
2022-09-07T02:49:52.891Z,71.83
2022-09-07T02:50:52.896Z,72.06
2022-09-07T02:51:52.861Z,71.43
2022-09-07T02:52:52.834Z,71.36
2022-09-07T02:53:52.862Z,71.26
2022-09-07T02:54:52.796Z,70.06
2022-09-07T02:55:52.830Z,70.06
2022-09-07T02:56:52.793Z,69.49
2022-09-07T02:57:52.738Z,69.46
2022-09-07T02:58:52.757Z,68.96
2022-09-07T02:59:52.752Z,68.26
2022-09-07T03:00:52.712Z,68.59
2022-09-07T03:01:52.721Z,68.08
2022-09-07T03:02:52.716Z,68.26
2022-09-07T03:03:52.657Z,68.26
2022-09-07T03:04:52.738Z,67.99
2022-09-07T03:05:52.666Z,68.08
2022-09-07T03:06:52.722Z,68.19
2022-09-07T03:07:52.575Z,68.49
2022-09-07T03:08:52.560Z,68.49
2022-09-07T03:09:52.580Z,68.79
2022-09-07T03:10:52.532Z,68.49
2022-09-07T03:11:52.506Z,68.49
2022-09-07T03:12:52.515Z,68.39
2022-09-07T03:13:52.539Z,68.79
2022-09-07T03:14:52.500Z,68.99
2022-09-07T03:15:55.952Z,69.39
2022-09-07T03:16:53.492Z,69.59
2022-09-07T03:17:52.421Z,69.49
2022-09-07T03:18:52.412Z,69.49
2022-09-07T03:19:52.426Z,69.69
2022-09-07T03:20:52.351Z,69.69
2022-09-07T03:21:52.360Z,70.19
2022-09-07T03:22:52.321Z,69.79
2022-09-07T03:23:52.309Z,69.89
2022-09-07T03:24:52.314Z,69.99
2022-09-07T03:25:52.274Z,70.19
2022-09-07T03:26:52.316Z,70.39
2022-09-07T03:27:52.232Z,70.23
2022-09-07T03:28:52.214Z,70.93
2022-09-07T03:29:52.243Z,70.83
2022-09-07T03:30:52.218Z,70.73
2022-09-07T03:31:52.160Z,70.93
2022-09-07T03:32:52.142Z,70.53
2022-09-07T03:33:52.140Z,71.73
2022-09-07T03:34:52.127Z,72.24
2022-09-07T03:35:52.125Z,71.83
2022-09-07T03:36:52.078Z,71.97
2022-09-07T03:37:52.060Z,71.77
2022-09-07T03:38:52.049Z,72.87
2022-09-07T03:39:52.116Z,73.47
2022-09-07T03:40:52.043Z,73.97
2022-09-07T03:41:51.982Z,74.57
2022-09-07T03:42:51.976Z,73.97
2022-09-07T03:43:51.950Z,74.48
2022-09-07T03:44:51.949Z,74.48
2022-09-07T03:45:52.024Z,75.88
2022-09-07T03:46:51.915Z,75.82
2022-09-07T03:47:51.876Z,75.71
2022-09-07T03:48:51.889Z,75.82
2022-09-07T03:49:51.871Z,75.92
2022-09-07T03:50:51.838Z,76.82
2022-09-07T03:51:51.806Z,77.36
2022-09-07T03:52:51.788Z,76.86
2022-09-07T03:53:51.772Z,77.26
2022-09-07T03:54:51.803Z,77.76
2022-09-07T03:55:51.743Z,77.29
2022-09-07T03:56:51.776Z,78.00
2022-09-07T03:57:51.713Z,79.10
2022-09-07T03:58:51.712Z,79.41
2022-09-07T03:59:51.780Z,79.61
2022-09-07T04:00:51.649Z,79.71
2022-09-07T04:01:51.683Z,79.61
2022-09-07T04:02:51.659Z,79.94
2022-09-07T04:03:51.626Z,79.74
2022-09-07T04:04:51.625Z,79.74
2022-09-07T04:05:51.576Z,80.49
2022-09-07T04:06:51.643Z,81.15
2022-09-07T04:07:51.541Z,81.49
2022-09-07T04:08:51.547Z,81.26
2022-09-07T04:09:51.551Z,81.65
2022-09-07T04:10:51.546Z,81.49
2022-09-07T04:11:51.474Z,81.49
2022-09-07T04:12:51.466Z,82.20
2022-09-07T04:13:51.443Z,83.31
2022-09-07T04:14:51.446Z,83.11
2022-09-07T04:15:53.879Z,83.45
2022-09-07T04:16:52.524Z,83.84
2022-09-07T04:17:51.366Z,83.45
2022-09-07T04:18:51.360Z,83.45
2022-09-07T04:19:51.365Z,83.65
2022-09-07T04:20:51.324Z,83.45
2022-09-07T04:21:51.409Z,83.45
2022-09-07T04:22:54.179Z,84.05
2022-09-07T04:23:52.264Z,84.35
2022-09-07T04:24:51.297Z,84.45
2022-09-07T04:25:51.232Z,85.20
2022-09-07T04:26:51.272Z,85.16
2022-09-07T04:27:51.204Z,84.75
2022-09-07T04:28:51.182Z,85.10
2022-09-07T04:29:51.222Z,85.10
2022-09-07T04:30:51.185Z,85.00
2022-09-07T04:31:51.141Z,84.89
2022-09-07T04:32:51.170Z,85.30
2022-09-07T04:33:51.102Z,85.30
2022-09-07T04:34:51.118Z,85.10
2022-09-07T04:35:51.068Z,85.70
2022-09-07T04:36:51.061Z,85.40
2022-09-07T04:37:51.043Z,85.50
2022-09-07T04:38:51.044Z,84.83
2022-09-07T04:39:51.120Z,85.34
2022-09-07T04:40:50.992Z,85.44
2022-09-07T04:41:50.974Z,85.94
2022-09-07T04:42:50.962Z,85.34
2022-09-07T04:43:50.935Z,85.94
2022-09-07T04:44:50.948Z,85.94
2022-09-07T04:45:50.950Z,85.84
2022-09-07T04:46:50.899Z,86.08
2022-09-07T04:47:50.865Z,86.04
2022-09-07T04:48:50.850Z,86.44
2022-09-07T04:49:50.866Z,86.04
2022-09-07T04:50:50.826Z,86.65
2022-09-07T04:51:50.825Z,86.85
2022-09-07T04:52:50.793Z,86.85
2022-09-07T04:53:50.791Z,86.24
2022-09-07T04:54:50.841Z,86.15
2022-09-07T04:55:50.765Z,86.24
2022-09-07T04:56:50.758Z,86.04
2022-09-07T04:57:50.708Z,85.94
2022-09-07T04:58:50.708Z,85.44
2022-09-07T04:59:50.721Z,85.44
2022-09-07T05:00:50.691Z,85.03
2022-09-07T05:01:50.633Z,85.14
2022-09-07T05:02:50.674Z,84.69
2022-09-07T05:03:50.610Z,84.09
2022-09-07T05:04:50.616Z,83.48
2022-09-07T05:05:50.650Z,83.59
2022-09-07T05:06:50.663Z,83.28
2022-09-07T05:07:50.537Z,82.68
2022-09-07T05:08:50.529Z,83.18
2022-09-07T05:09:50.562Z,82.74
2022-09-07T05:10:50.490Z,82.64
2022-09-07T05:11:50.540Z,83.28
2022-09-07T05:12:50.469Z,82.98
2022-09-07T05:13:50.436Z,83.48
2022-09-07T05:14:50.460Z,82.78
2022-09-07T05:15:50.400Z,83.28
2022-09-07T05:16:50.433Z,83.18
2022-09-07T05:17:50.385Z,83.65
2022-09-07T05:18:50.354Z,83.25
2022-09-07T05:19:50.365Z,83.04
2022-09-07T05:20:50.317Z,83.14
2022-09-07T05:21:50.309Z,83.75
2022-09-07T05:22:50.288Z,83.11
2022-09-07T05:23:50.317Z,83.51
2022-09-07T05:24:50.249Z,83.71
2022-09-07T05:25:50.233Z,83.61
2022-09-07T05:26:50.265Z,83.20
2022-09-07T05:27:50.221Z,83.91
2022-09-07T05:28:50.474Z,84.31
2022-09-07T05:30:06.247Z,85.25
2022-09-07T05:31:52.144Z,83.71
2022-09-07T05:32:50.139Z,83.45
2022-09-07T05:34:53.026Z,83.20
2022-09-07T05:35:51.073Z,82.10
2022-09-07T05:36:50.107Z,81.59
2022-09-07T05:37:50.035Z,81.59
2022-09-07T05:38:50.151Z,81.65
2022-09-07T05:39:50.078Z,80.25
2022-09-07T05:40:49.980Z,80.35
2022-09-07T05:41:49.984Z,80.01
2022-09-07T05:42:49.962Z,78.40
2022-09-07T05:44:51.928Z,77.56
2022-09-07T05:45:49.938Z,77.36
2022-09-07T05:46:49.944Z,77.06
2022-09-07T05:47:49.885Z,76.86
2022-09-07T05:48:49.845Z,77.56
2022-09-07T05:49:51.957Z,76.62
2022-09-07T05:50:50.816Z,76.72
2022-09-07T05:51:49.838Z,77.02
2022-09-07T05:52:49.787Z,77.59
2022-09-07T05:53:49.769Z,76.68
2022-09-07T05:54:49.789Z,76.34
2022-09-07T05:55:49.739Z,75.51
2022-09-07T05:56:49.812Z,75.67
2022-09-07T05:57:49.706Z,74.13
2022-09-07T05:58:49.697Z,74.13
2022-09-07T05:59:49.735Z,74.43
2022-09-07T06:00:49.788Z,73.00
2022-09-07T06:01:49.718Z,73.90
2022-09-07T06:02:49.722Z,73.70
2022-09-07T06:03:49.592Z,73.66
2022-09-07T06:04:49.676Z,73.46
2022-09-07T06:05:49.564Z,73.53
2022-09-07T06:07:17.592Z,72.76
2022-09-07T06:07:51.529Z,73.03
2022-09-07T06:08:49.513Z,73.29
2022-09-07T06:10:51.467Z,69.53
2022-09-07T06:11:49.498Z,68.93
2022-09-07T06:12:49.593Z,68.03
2022-09-07T06:13:49.433Z,67.83
2022-09-07T06:14:49.443Z,68.06
2022-09-07T06:15:49.414Z,68.96
2022-09-07T06:16:49.498Z,69.66
2022-09-07T06:17:49.370Z,69.39
2022-09-07T06:18:49.334Z,69.06
2022-09-07T06:19:49.354Z,68.89
2022-09-07T06:20:49.316Z,69.36
2022-09-07T06:21:49.293Z,69.09
2022-09-07T06:22:49.300Z,69.36
2022-09-07T06:23:49.259Z,68.86
2022-09-07T06:24:49.277Z,68.63
2022-09-07T06:25:49.221Z,68.82
2022-09-07T06:26:49.267Z,68.52
2022-09-07T06:27:49.189Z,68.43
2022-09-07T06:28:50.902Z,68.29
2022-09-07T06:29:50.175Z,67.69
2022-09-07T06:30:49.149Z,68.82
2022-09-07T06:32:51.108Z,68.82
2022-09-07T06:33:49.131Z,69.32
2022-09-07T06:34:49.103Z,69.13
2022-09-07T06:35:49.085Z,69.13
2022-09-07T06:36:49.046Z,68.19
2022-09-07T06:37:49.020Z,68.33
2022-09-07T06:38:49.055Z,67.60
2022-09-07T06:39:49.078Z,67.69
2022-09-07T06:40:49.041Z,67.19
2022-09-07T06:42:04.383Z,67.90
2022-09-07T06:42:50.991Z,67.07
2022-09-07T06:43:48.948Z,66.27
2022-09-07T06:44:48.910Z,65.64
2022-09-07T06:45:48.974Z,65.53
2022-09-07T06:47:05.259Z,65.57
2022-09-07T06:47:50.862Z,64.75
2022-09-07T06:48:48.916Z,64.42
2022-09-07T06:49:48.828Z,63.89
2022-09-07T06:50:49.133Z,63.09
2022-09-07T06:51:48.812Z,64.28
2022-09-07T06:53:51.296Z,63.59
2022-09-07T06:55:50.790Z,61.47
2022-09-07T06:56:48.720Z,62.66
2022-09-07T06:57:48.696Z,62.43
2022-09-07T06:58:48.718Z,62.27
2022-09-07T06:59:48.667Z,61.45
2022-09-07T07:00:48.678Z,59.80
2022-09-07T07:01:48.649Z,58.69
2022-09-07T07:02:48.712Z,57.86
2022-09-07T07:03:48.609Z,56.72
2022-09-07T07:04:48.617Z,56.30
2022-09-07T07:05:48.576Z,54.88
2022-09-07T07:06:48.597Z,54.39
2022-09-07T07:07:48.554Z,54.79
2022-09-07T07:08:48.537Z,55.68
2022-09-07T07:09:48.553Z,54.10
2022-09-07T07:10:48.496Z,54.76
2022-09-07T07:11:48.467Z,53.57
2022-09-07T07:12:49.470Z,53.85
2022-09-07T07:13:48.460Z,52.63
2022-09-07T07:14:48.478Z,50.71
2022-09-07T07:15:48.407Z,50.09
2022-09-07T07:16:48.466Z,49.77
2022-09-07T07:17:56.066Z,48.86
2022-09-07T07:18:50.372Z,48.32
2022-09-07T07:19:48.374Z,46.31
2022-09-07T07:20:48.332Z,46.36
2022-09-07T07:22:10.796Z,45.77
2022-09-07T07:22:50.392Z,45.06
2022-09-07T07:23:48.317Z,45.31
2022-09-07T07:24:48.277Z,44.90
2022-09-07T07:25:48.247Z,45.09
2022-09-07T07:26:48.243Z,43.90
2022-09-07T07:27:48.216Z,42.90
2022-09-07T07:29:04.163Z,42.90
2022-09-07T07:29:50.226Z,42.90
2022-09-07T07:30:49.186Z,42.97
2022-09-07T07:31:48.214Z,42.38
2022-09-07T07:32:48.142Z,42.78
2022-09-07T07:33:48.219Z,43.15
2022-09-07T07:34:48.142Z,42.56
2022-09-07T07:35:48.115Z,42.15
2022-09-07T07:36:48.094Z,42.17
2022-09-07T07:37:48.096Z,42.25
2022-09-07T07:39:03.570Z,42.15
2022-09-07T07:42:49.006Z,40.84
2022-09-07T07:43:48.010Z,41.62
2022-09-07T07:44:48.026Z,39.84
2022-09-07T07:45:55.213Z,40.80
2022-09-07T07:46:50.315Z,40.80
2022-09-07T07:47:47.934Z,39.92
2022-09-07T07:48:47.943Z,39.84
2022-09-07T07:49:48.032Z,39.55
2022-09-07T07:50:47.863Z,39.62
2022-09-07T07:52:50.476Z,40.29
2022-09-07T07:53:48.859Z,38.63
2022-09-07T07:54:47.831Z,39.12
2022-09-07T07:55:47.842Z,38.63
2022-09-07T07:56:47.770Z,37.73
2022-09-07T07:57:48.771Z,38.40
2022-09-07T07:58:47.777Z,37.71
2022-09-07T07:59:47.738Z,37.52
2022-09-07T08:00:56.131Z,37.58
2022-09-07T08:01:49.912Z,36.40
2022-09-07T08:02:47.761Z,36.10
2022-09-07T08:03:47.691Z,36.47
2022-09-07T08:04:47.705Z,35.89
2022-09-07T08:05:47.661Z,35.88
2022-09-07T08:06:47.639Z,35.37
2022-09-07T08:07:47.622Z,35.17
2022-09-07T08:08:47.675Z,34.98
2022-09-07T08:09:47.638Z,35.16
2022-09-07T08:10:47.599Z,36.15
2022-09-07T08:11:47.593Z,34.97
2022-09-07T08:12:47.574Z,34.85
2022-09-07T08:13:47.554Z,35.32
2022-09-07T08:14:47.569Z,33.86
2022-09-07T08:15:47.524Z,34.75
2022-09-07T08:16:47.513Z,35.14
2022-09-07T08:17:47.506Z,34.85
2022-09-07T08:18:47.494Z,35.66
2022-09-07T08:19:47.500Z,35.16
2022-09-07T08:20:47.465Z,34.87
2022-09-07T08:21:47.501Z,35.43
2022-09-07T08:22:47.445Z,35.22
2022-09-07T08:23:47.434Z,33.67
2022-09-07T08:24:47.439Z,35.33
2022-09-07T08:25:47.387Z,34.54
2022-09-07T08:26:47.377Z,33.57
2022-09-07T08:27:47.360Z,33.75
2022-09-07T08:28:47.390Z,34.23
2022-09-07T08:29:47.337Z,33.65
2022-09-07T08:30:47.323Z,32.78
2022-09-07T08:31:47.378Z,32.70
2022-09-07T08:32:47.294Z,32.79
2022-09-07T08:33:47.313Z,33.64
2022-09-07T08:34:47.253Z,32.59
2022-09-07T08:35:47.254Z,32.31
2022-09-07T08:36:47.231Z,33.28
2022-09-07T08:37:47.382Z,32.09
2022-09-07T08:38:47.242Z,32.47
2022-09-07T08:39:47.237Z,32.89
2022-09-07T08:40:47.251Z,33.51
2022-09-07T08:41:47.184Z,33.54
2022-09-07T08:42:47.163Z,33.90
2022-09-07T08:43:49.216Z,34.11
2022-09-07T08:44:48.137Z,34.32
2022-09-07T08:45:47.116Z,33.56
2022-09-07T08:46:47.222Z,35.13
2022-09-07T08:47:47.091Z,35.13
2022-09-07T08:48:47.140Z,34.94
2022-09-07T08:49:47.055Z,35.18
2022-09-07T08:50:47.046Z,36.57
2022-09-07T08:51:47.042Z,36.76
2022-09-07T08:52:47.013Z,36.47
2022-09-07T08:53:47.043Z,36.25
2022-09-07T08:54:46.989Z,36.57
2022-09-07T08:55:46.980Z,35.86
2022-09-07T08:57:48.952Z,36.66
2022-09-07T08:58:49.554Z,36.74
2022-09-07T08:59:47.933Z,35.75
2022-09-07T09:00:46.915Z,35.73
2022-09-07T09:02:26.975Z,35.46
2022-09-07T09:03:28.612Z,35.25
2022-09-07T09:05:19.008Z,35.25
2022-09-07T09:05:48.911Z,35.11
2022-09-07T09:06:46.978Z,33.64
2022-09-07T09:07:46.837Z,34.61
2022-09-07T09:08:46.862Z,34.53
2022-09-07T09:09:46.802Z,34.94
2022-09-07T09:10:46.779Z,34.74
2022-09-07T09:11:46.792Z,34.08
2022-09-07T09:12:46.749Z,35.36
2022-09-07T09:13:46.743Z,35.46
2022-09-07T09:14:46.755Z,35.25
2022-09-07T09:15:46.773Z,35.21
2022-09-07T09:16:46.711Z,33.75
2022-09-07T09:17:46.684Z,33.65
2022-09-07T09:18:46.725Z,34.66
2022-09-07T09:19:46.659Z,35.02
2022-09-07T09:20:46.644Z,33.44
2022-09-07T09:21:46.640Z,34.05
2022-09-07T09:22:46.614Z,33.64
2022-09-07T09:23:46.606Z,35.23
2022-09-07T09:24:46.649Z,35.52
2022-09-07T09:25:46.581Z,35.21
2022-09-07T09:26:46.616Z,34.94
2022-09-07T09:27:46.544Z,34.82
2022-09-07T09:28:46.578Z,34.92
2022-09-07T09:29:46.510Z,35.02
2022-09-07T09:30:46.509Z,35.19
2022-09-07T09:31:46.550Z,33.91
2022-09-07T09:32:46.475Z,33.81
2022-09-07T09:33:46.453Z,33.72
2022-09-07T09:34:46.479Z,33.53
2022-09-07T09:35:46.424Z,34.11
2022-09-07T09:36:46.457Z,34.82
2022-09-07T09:37:46.409Z,35.73
2022-09-07T09:38:46.428Z,35.61
2022-09-07T09:39:49.028Z,35.11
2022-09-07T09:40:46.367Z,35.02
2022-09-07T09:41:46.341Z,34.61
2022-09-07T09:42:46.335Z,34.70
2022-09-07T09:43:46.313Z,33.72
2022-09-07T09:44:46.329Z,33.70
2022-09-07T09:47:29.184Z,34.01
2022-09-07T09:47:47.316Z,34.01
2022-09-07T09:48:46.277Z,33.73
2022-09-07T09:49:46.234Z,34.90
2022-09-07T09:52:51.843Z,34.20
2022-09-07T09:53:47.229Z,35.44
2022-09-07T09:54:46.166Z,35.34
2022-09-07T09:55:46.151Z,34.84
2022-09-07T09:56:46.145Z,35.41
2022-09-07T09:59:04.878Z,34.52
2022-09-07T09:59:57.397Z,35.08
2022-09-07T10:03:55.916Z,33.81
2022-09-07T10:04:48.084Z,35.11
2022-09-07T10:05:46.020Z,34.90
2022-09-07T10:06:46.028Z,34.59
2022-09-07T10:07:45.996Z,34.09
2022-09-07T10:08:45.976Z,34.01
2022-09-07T10:09:46.011Z,34.59
2022-09-07T10:10:45.963Z,33.62
2022-09-07T10:12:47.938Z,33.78
2022-09-07T10:13:46.867Z,33.39
2022-09-07T10:14:45.939Z,33.29
2022-09-07T10:15:45.941Z,34.06
2022-09-07T10:16:45.872Z,33.34
2022-09-07T10:17:45.862Z,33.62
2022-09-07T10:18:45.851Z,33.10
2022-09-07T10:19:45.858Z,31.94
2022-09-07T10:20:45.813Z,32.23
2022-09-07T10:21:45.800Z,31.74
2022-09-07T10:22:49.602Z,31.63
2022-09-07T10:23:47.780Z,31.71
2022-09-07T10:24:45.788Z,31.81
2022-09-07T10:25:45.743Z,31.81
2022-09-07T10:26:45.734Z,31.41
2022-09-07T10:27:45.728Z,31.73
2022-09-07T10:29:47.760Z,32.84
2022-09-07T10:30:45.727Z,33.73
2022-09-07T10:31:45.717Z,32.87
2022-09-07T10:32:45.653Z,33.07
2022-09-07T10:34:25.687Z,33.76
2022-09-07T10:34:46.653Z,34.53
2022-09-07T10:35:45.618Z,32.75
2022-09-07T10:36:45.585Z,33.80
2022-09-07T10:37:45.588Z,33.10
2022-09-07T10:38:45.591Z,32.02
2022-09-07T10:39:45.636Z,32.12
2022-09-07T10:40:45.612Z,31.52
2022-09-07T10:41:45.599Z,31.81
2022-09-07T10:43:20.652Z,31.23
2022-09-07T10:43:47.512Z,31.02
2022-09-07T10:44:45.513Z,30.33
2022-09-07T10:45:45.464Z,30.94
2022-09-07T10:47:00.901Z,31.51
2022-09-07T10:47:47.508Z,31.04
2022-09-07T10:48:45.455Z,31.13
2022-09-07T10:50:47.426Z,31.23
2022-09-07T10:51:45.378Z,31.84
2022-09-07T10:52:45.382Z,31.96
2022-09-07T10:53:45.492Z,33.07
2022-09-07T10:54:45.383Z,34.59
2022-09-07T10:55:45.339Z,35.41
2022-09-07T10:56:45.315Z,35.13
2022-09-07T10:57:48.906Z,36.12
2022-09-07T10:59:02.833Z,35.83
2022-09-07T11:00:47.279Z,36.49
2022-09-07T11:01:45.272Z,37.27
2022-09-07T11:03:24.860Z,38.38
2022-09-07T11:03:47.264Z,38.69
2022-09-07T11:04:45.241Z,38.30
2022-09-07T11:05:45.196Z,38.92
2022-09-07T11:06:45.233Z,39.70
2022-09-07T11:07:45.158Z,39.61
2022-09-07T11:09:47.181Z,40.43
2022-09-07T11:10:45.121Z,40.43
2022-09-07T11:12:01.118Z,40.62
2022-09-07T11:12:47.096Z,40.72
2022-09-07T11:14:09.365Z,40.72
2022-09-07T11:14:47.087Z,41.70
2022-09-07T11:15:45.081Z,41.21
2022-09-07T11:16:52.291Z,40.14
2022-09-07T11:17:52.005Z,40.23
2022-09-07T11:18:47.026Z,40.45
2022-09-07T11:19:45.024Z,40.47
2022-09-07T11:20:44.990Z,40.48
2022-09-07T11:22:00.273Z,41.39
2022-09-07T11:22:46.928Z,41.29
2022-09-07T11:23:44.941Z,42.49
2022-09-07T11:24:45.265Z,41.78
2022-09-07T11:25:46.721Z,41.41
2022-09-07T11:26:44.865Z,42.02
2022-09-07T11:27:44.867Z,41.35
2022-09-07T11:28:45.341Z,43.43
2022-09-07T11:29:44.882Z,42.75
2022-09-07T11:30:44.892Z,43.16
2022-09-07T11:31:44.800Z,44.19
2022-09-07T11:32:44.788Z,44.80
2022-09-07T11:34:23.727Z,44.51
2022-09-07T11:34:46.799Z,44.53
2022-09-07T11:35:44.751Z,44.33
2022-09-07T11:36:44.738Z,45.51
2022-09-07T11:37:44.705Z,45.24
2022-09-07T11:38:44.700Z,45.63
2022-09-07T11:39:44.789Z,45.63
2022-09-07T11:40:44.657Z,46.03
2022-09-07T11:41:44.656Z,45.73
2022-09-07T11:42:44.700Z,46.03
2022-09-07T11:43:44.616Z,45.73
2022-09-07T11:44:44.627Z,47.60
2022-09-07T11:45:44.640Z,45.31
2022-09-07T11:46:44.639Z,45.00
2022-09-07T11:47:44.558Z,45.59
2022-09-07T11:48:44.525Z,44.70
2022-09-07T11:49:50.789Z,45.53
2022-09-07T11:50:46.516Z,45.24
2022-09-07T11:51:44.476Z,45.65
2022-09-07T11:52:44.479Z,45.65
2022-09-07T11:53:44.457Z,45.28
2022-09-07T11:54:44.464Z,45.78
2022-09-07T11:55:44.416Z,46.00
2022-09-07T11:56:45.710Z,45.87
2022-09-07T11:57:45.382Z,45.38
2022-09-07T11:58:44.371Z,45.85
2022-09-07T11:59:44.382Z,45.43
2022-09-07T12:00:44.345Z,45.43
2022-09-07T12:01:44.336Z,45.34
2022-09-07T12:02:58.999Z,44.84
2022-09-07T12:03:46.433Z,45.24
2022-09-07T12:04:44.362Z,45.43
2022-09-07T12:05:44.269Z,45.04
2022-09-07T12:06:44.254Z,45.06
2022-09-07T12:07:44.239Z,45.56
2022-09-07T12:08:44.198Z,44.47
2022-09-07T12:09:44.215Z,45.57
2022-09-07T12:10:44.174Z,45.38
2022-09-07T12:11:44.164Z,45.50
2022-09-07T12:12:44.153Z,45.70
2022-09-07T12:13:44.125Z,45.79
2022-09-07T12:14:44.175Z,45.18
2022-09-07T12:15:44.114Z,46.04
2022-09-07T12:16:44.077Z,46.42
2022-09-07T12:17:44.073Z,45.21
2022-09-07T12:18:44.067Z,45.00
2022-09-07T12:19:44.049Z,44.58
2022-09-07T12:20:44.030Z,44.66
2022-09-07T12:21:44.003Z,44.66
2022-09-07T12:22:43.983Z,44.76
2022-09-07T12:23:43.973Z,45.25
2022-09-07T12:24:44.035Z,44.78
2022-09-07T12:25:43.951Z,45.39
2022-09-07T12:26:43.921Z,44.80
2022-09-07T12:27:43.901Z,44.70
2022-09-07T12:28:43.894Z,44.33
2022-09-07T12:29:45.433Z,45.51
2022-09-07T12:30:44.901Z,45.12
2022-09-07T12:31:57.188Z,45.73
2022-09-07T12:32:54.276Z,45.83
2022-09-07T12:33:45.812Z,45.53
2022-09-07T12:34:43.827Z,46.42
2022-09-07T12:35:43.778Z,46.12
2022-09-07T12:36:43.773Z,45.71
2022-09-07T12:37:43.790Z,46.79
2022-09-07T12:38:43.727Z,46.47
2022-09-07T12:39:43.808Z,46.47
2022-09-07T12:40:43.813Z,45.39
2022-09-07T12:41:44.615Z,46.37
2022-09-07T12:42:43.663Z,45.59
2022-09-07T12:43:43.654Z,46.18
2022-09-07T12:44:43.670Z,45.98
2022-09-07T12:45:43.619Z,47.38
2022-09-07T12:46:43.640Z,46.99
2022-09-07T12:47:43.586Z,47.41
2022-09-07T12:48:43.565Z,47.90
2022-09-07T12:49:43.588Z,47.70
2022-09-07T12:50:43.537Z,48.29
2022-09-07T12:52:45.518Z,48.29
2022-09-07T12:53:43.626Z,47.60
2022-09-07T12:54:43.597Z,47.80
2022-09-07T12:56:45.695Z,46.40
2022-09-07T12:57:43.458Z,45.71
2022-09-07T12:58:43.521Z,46.59
2022-09-07T12:59:43.424Z,45.88
2022-09-07T13:00:43.393Z,46.57
2022-09-07T13:01:43.908Z,45.19
2022-09-07T13:02:43.413Z,45.09
2022-09-07T13:03:51.954Z,45.59
2022-09-07T13:04:45.383Z,45.19
2022-09-07T13:05:43.304Z,45.00
2022-09-07T13:07:45.263Z,45.61
2022-09-07T13:08:43.237Z,45.81
2022-09-07T13:09:43.280Z,45.93
2022-09-07T13:10:43.229Z,45.16
2022-09-07T13:11:43.246Z,47.67
2022-09-07T13:12:58.581Z,48.19
2022-09-07T13:14:45.196Z,49.30
2022-09-07T13:15:43.216Z,50.31
2022-09-07T13:17:45.108Z,51.52
2022-09-07T13:18:43.082Z,51.30
2022-09-07T13:19:43.128Z,50.81
2022-09-07T13:20:43.045Z,52.09
2022-09-07T13:21:43.157Z,52.48
2022-09-07T13:22:43.024Z,53.40